Time;durP1;ratioP1;P1;durP2;ratioP2;P2;SDS_P1;SDS_P2;PMS_P1;PMS_P2;Temp;Humidity;BMP_temperature;BMP_pressure;BME280_temperature;BME280_humidity;BME280_pressure;Samples;Min_cycle;Max_cycle;Signal;HPM_P1;HPM_P2
2023/02/26 00:00:14;;;;;;;9.68;3.72;;;;;;;;;;4985345;28;20039;-57
2023/02/26 00:02:39;;;;;;;;;;;;;;;;;;4987704;28;20088;-55
2023/02/26 00:05:05;;;;;;;18.30;6.70;;;;;;;;;;4984507;28;19914;-58
2023/02/26 00:07:30;;;;;;;12.60;6.00;;;;;;;;;;4988492;28;20989;-53
2023/02/26 00:09:55;;;;;;;21.05;7.05;;;;;;;;;;4987059;28;20037;-57
2023/02/26 00:12:21;;;;;;;21.95;9.02;;;;;;;;;;4987400;28;20057;-54
2023/02/26 00:14:46;;;;;;;21.42;9.32;;;;;;;;;;4985430;28;20483;-54
2023/02/26 00:17:24;;;;;;;25.27;8.85;;;;;;;;;;4984466;28;20034;-55
2023/02/26 00:19:49;;;;;;;20.83;7.82;;;;;;;;;;4986863;28;20315;-56
2023/02/26 00:22:15;;;;;;;19.20;7.88;;;;;;;;;;4984764;28;20038;-55
2023/02/26 00:24:41;;;;;;;17.10;7.28;;;;;;;;;;4984597;28;20391;-57
2023/02/26 00:27:06;;;;;;;16.27;6.93;;;;;;;;;;4984113;28;20088;-59
2023/02/26 00:29:32;;;;;;;18.15;8.38;;;;;;;;;;4982479;28;20026;-58
2023/02/26 00:31:57;;;;;;;16.25;7.45;;;;;;;;;;4985670;28;20029;-54
2023/02/26 00:34:23;;;;;;;15.88;6.40;;;;;;;;;;4985690;28;20030;-55
2023/02/26 00:36:51;;;;;;;16.15;7.93;;;;;;;;;;4988592;28;20118;-54
2023/02/26 00:39:32;;;;;;;13.85;7.20;;;;;;;;;;4978001;28;20518;-55
2023/02/26 00:41:57;;;;;;;13.85;5.80;;;;;;;;;;4988196;28;20042;-54
2023/02/26 00:44:22;;;;;;;12.00;5.32;;;;;;;;;;4985995;28;20395;-58
2023/02/26 00:47:00;;;;;;;9.07;5.10;;;;;;;;;;4985016;28;20041;-54
2023/02/26 00:49:44;;;;;;;11.15;4.82;;;;;;;;;;4984411;28;20031;-55
2023/02/26 00:52:13;;;;;;;9.38;4.25;;;;;;;;;;4985898;28;20034;-51
2023/02/26 00:54:38;;;;;;;6.00;3.60;;;;;;;;;;4984965;28;20026;-51
2023/02/26 00:57:05;;;;;;;11.60;5.30;;;;;;;;;;4987079;28;20038;-52
2023/02/26 00:59:31;;;;;;;7.95;4.90;;;;;;;;;;4984089;28;20069;-56
2023/02/26 01:01:56;;;;;;;10.75;5.25;;;;;;;;;;4983157;28;20145;-59
2023/02/26 01:04:22;;;;;;;11.32;5.72;;;;;;;;;;4986189;28;20034;-54
2023/02/26 01:06:49;;;;;;;11.68;5.85;;;;;;;;;;4988116;28;20042;-54
2023/02/26 01:09:20;;;;;;;11.90;5.78;;;;;;;;;;4994356;28;20042;-55
2023/02/26 01:11:46;;;;;;;9.95;4.78;;;;;;;;;;4982684;28;20035;-55
2023/02/26 01:14:12;;;;;;;8.80;4.28;;;;;;;;;;4979739;28;20535;-51
2023/02/26 01:16:42;;;;;;;6.70;3.78;;;;;;;;;;4982946;28;20451;-52
2023/02/26 01:19:15;;;;;;;6.60;3.78;;;;;;;;;;4983467;28;20515;-57
2023/02/26 01:21:44;;;;;;;5.70;3.28;;;;;;;;;;4984977;28;20030;-57
2023/02/26 01:24:13;;;;;;;9.57;3.38;;;;;;;;;;4983173;28;20117;-58
2023/02/26 01:26:39;;;;;;;8.70;3.67;;;;;;;;;;4982663;28;20030;-59
2023/02/26 01:29:04;;;;;;;4.70;2.97;;;;;;;;;;4985112;28;20395;-57
2023/02/26 01:32:08;;;;;;;5.28;3.15;;;;;;;;;;4987522;28;20042;-56
2023/02/26 01:34:43;;;;;;;7.03;3.80;;;;;;;;;;4980803;28;20038;-59
2023/02/26 01:37:27;;;;;;;8.90;3.88;;;;;;;;;;4981267;28;20053;-56
2023/02/26 01:40:17;;;;;;;8.02;3.53;;;;;;;;;;4982366;28;20042;-57
2023/02/26 01:42:43;;;;;;;8.52;3.40;;;;;;;;;;4983997;28;20056;-58
2023/02/26 01:45:14;;;;;;;12.95;4.15;;;;;;;;;;4984059;28;20030;-59
2023/02/26 01:47:40;;;;;;;12.85;5.32;;;;;;;;;;4985005;28;20050;-55
2023/02/26 01:50:15;;;;;;;11.35;4.63;;;;;;;;;;4984816;28;20486;-56
2023/02/26 01:52:47;;;;;;;8.63;5.22;;;;;;;;;;4983059;28;20030;-54
2023/02/26 01:55:17;;;;;;;8.63;5.47;;;;;;;;;;4998569;28;20038;-54
2023/02/26 01:57:42;;;;;;;8.88;5.38;;;;;;;;;;4984769;28;20055;-51
2023/02/26 02:00:08;;;;;;;10.30;5.60;;;;;;;;;;4982526;28;20041;-54
2023/02/26 02:02:37;;;;;;;8.88;4.45;;;;;;;;;;4987191;28;20044;-55
2023/02/26 02:05:18;;;;;;;9.35;4.32;;;;;;;;;;4980143;28;20044;-53
2023/02/26 02:07:44;;;;;;;8.18;4.63;;;;;;;;;;4983938;28;20034;-56
2023/02/26 02:10:10;;;;;;;9.75;4.40;;;;;;;;;;4981383;28;20038;-55
2023/02/26 02:12:45;;;;;;;7.78;4.30;;;;;;;;;;4986811;28;20096;-58
2023/02/26 02:15:15;;;;;;;11.82;4.47;;;;;;;;;;5004563;28;20529;-56
2023/02/26 02:17:47;;;;;;;10.43;4.65;;;;;;;;;;4987652;28;20500;-59
2023/02/26 02:20:23;;;;;;;9.02;4.65;;;;;;;;;;4983096;28;20038;-56
2023/02/26 02:22:52;;;;;;;8.80;4.55;;;;;;;;;;4987293;28;20381;-54
2023/02/26 02:25:36;;;;;;;8.07;4.65;;;;;;;;;;4986440;28;20060;-58
2023/02/26 02:28:28;;;;;;;14.75;5.90;;;;;;;;;;4986385;28;20042;-60
2023/02/26 02:30:53;;;;;;;9.73;4.13;;;;;;;;;;4986839;28;20034;-54
2023/02/26 02:33:22;;;;;;;5.18;3.42;;;;;;;;;;4985899;28;20876;-52
2023/02/26 02:35:56;;;;;;;9.85;3.88;;;;;;;;;;4987386;28;20038;-57
2023/02/26 02:38:26;;;;;;;7.80;3.60;;;;;;;;;;4988089;28;20046;-53
2023/02/26 02:40:58;;;;;;;7.45;4.10;;;;;;;;;;5000299;28;20053;-56
2023/02/26 02:43:26;;;;;;;6.60;4.13;;;;;;;;;;4985715;28;20026;-58
2023/02/26 02:45:55;;;;;;;9.35;4.28;;;;;;;;;;4982089;28;20503;-51
2023/02/26 02:48:24;;;;;;;11.52;4.60;;;;;;;;;;4988161;28;20355;-50
2023/02/26 02:50:52;;;;;;;13.15;5.30;;;;;;;;;;4988274;28;20026;-50
2023/02/26 02:53:23;;;;;;;10.45;4.68;;;;;;;;;;4986918;28;20177;-57
2023/02/26 02:56:17;;;;;;;8.95;4.13;;;;;;;;;;4984506;28;20038;-57
2023/02/26 02:58:45;;;;;;;9.63;5.03;;;;;;;;;;4974463;28;20137;-56
2023/02/26 03:01:13;;;;;;;15.02;5.15;;;;;;;;;;5000412;28;20133;-57
2023/02/26 03:03:47;;;;;;;9.25;5.45;;;;;;;;;;4986467;28;20033;-54
2023/02/26 03:06:13;;;;;;;15.02;5.35;;;;;;;;;;4983404;28;20402;-55
2023/02/26 03:08:40;;;;;;;13.23;5.53;;;;;;;;;;4986338;28;20037;-53
2023/02/26 03:11:08;;;;;;;16.13;6.75;;;;;;;;;;4984666;28;20077;-55
2023/02/26 03:13:34;;;;;;;17.40;7.07;;;;;;;;;;4987131;28;20661;-52
2023/02/26 03:16:25;;;;;;;16.52;7.10;;;;;;;;;;4988012;28;20526;-51
2023/02/26 03:19:00;;;;;;;14.80;7.50;;;;;;;;;;4988060;28;20034;-56
2023/02/26 03:21:43;;;;;;;16.38;7.03;;;;;;;;;;4978784;28;20661;-56
2023/02/26 03:24:25;;;;;;;16.63;7.00;;;;;;;;;;4999288;28;20034;-54
2023/02/26 03:26:55;;;;;;;20.42;7.63;;;;;;;;;;4989028;28;20026;-57
2023/02/26 03:29:23;;;;;;;12.20;6.25;;;;;;;;;;4967503;28;20638;-56
2023/02/26 03:31:54;;;;;;;12.57;5.65;;;;;;;;;;5002890;28;20439;-53
2023/02/26 03:34:24;;;;;;;9.85;5.10;;;;;;;;;;4977980;28;20038;-55
2023/02/26 03:36:53;;;;;;;9.38;5.43;;;;;;;;;;4987782;28;20045;-55
2023/02/26 03:39:30;;;;;;;10.20;5.38;;;;;;;;;;4979463;28;20395;-52
2023/02/26 03:42:15;;;;;;;9.30;4.90;;;;;;;;;;4968923;28;20034;-50
2023/02/26 03:44:54;;;;;;;10.20;5.18;;;;;;;;;;4980983;28;20034;-53
2023/02/26 03:47:21;;;;;;;8.43;5.13;;;;;;;;;;4986160;28;20060;-54
2023/02/26 03:49:55;;;;;;;15.10;5.20;;;;;;;;;;4985075;28;20065;-50
2023/02/26 03:52:22;;;;;;;9.73;4.80;;;;;;;;;;5001786;28;20124;-52
2023/02/26 03:55:19;;;;;;;9.85;4.38;;;;;;;;;;4990701;28;20050;-53
2023/02/26 03:58:08;;;;;;;10.25;4.55;;;;;;;;;;4982018;28;20494;-57
2023/02/26 04:01:02;;;;;;;11.55;5.13;;;;;;;;;;4987221;28;20573;-52
2023/02/26 04:03:32;;;;;;;8.98;4.90;;;;;;;;;;4967263;28;20070;-58
2023/02/26 04:05:58;;;;;;;12.27;4.45;;;;;;;;;;4994219;28;20033;-55
2023/02/26 04:08:23;;;;;;;15.32;4.88;;;;;;;;;;4985169;28;20041;-53
2023/02/26 04:10:54;;;;;;;16.60;5.20;;;;;;;;;;4991083;28;20112;-57
2023/02/26 04:13:19;;;;;;;11.35;5.45;;;;;;;;;;4997320;28;20026;-55
2023/02/26 04:15:45;;;;;;;9.98;5.30;;;;;;;;;;4980129;28;20030;-53
2023/02/26 04:18:10;;;;;;;12.60;5.68;;;;;;;;;;4984854;28;20164;-53
2023/02/26 04:20:36;;;;;;;11.45;5.28;;;;;;;;;;4985805;28;20034;-55
2023/02/26 04:23:01;;;;;;;12.43;5.20;;;;;;;;;;4984936;28;20039;-52
2023/02/26 04:25:26;;;;;;;12.45;5.00;;;;;;;;;;4984839;28;20121;-55
2023/02/26 04:27:52;;;;;;;8.88;4.30;;;;;;;;;;4994976;28;20642;-52
2023/02/26 04:30:17;;;;;;;10.68;4.60;;;;;;;;;;4966398;28;20038;-58
2023/02/26 04:32:43;;;;;;;14.60;4.47;;;;;;;;;;4986074;28;20649;-56
2023/02/26 04:35:09;;;;;;;9.70;4.72;;;;;;;;;;4982751;28;20093;-56
2023/02/26 04:37:35;;;;;;;10.02;5.07;;;;;;;;;;4970140;28;20042;-53
2023/02/26 04:40:00;;;;;;;6.72;3.95;;;;;;;;;;4983399;28;20041;-57
2023/02/26 04:42:26;;;;;;;11.45;4.18;;;;;;;;;;4985263;28;20045;-55
2023/02/26 04:44:52;;;;;;;10.88;4.18;;;;;;;;;;4968682;28;20400;-57
2023/02/26 04:47:17;;;;;;;6.47;3.42;;;;;;;;;;4991011;28;20077;-55
2023/02/26 04:49:43;;;;;;;9.70;3.92;;;;;;;;;;4976869;28;20062;-55
2023/02/26 04:52:10;;;;;;;10.13;5.10;;;;;;;;;;4985952;28;20038;-57
2023/02/26 04:54:36;;;;;;;13.98;5.57;;;;;;;;;;4987422;28;20136;-52
2023/02/26 04:57:02;;;;;;;18.35;5.43;;;;;;;;;;4984955;28;20574;-52
2023/02/26 04:59:27;;;;;;;10.95;5.32;;;;;;;;;;4992093;28;20121;-54
2023/02/26 05:01:52;;;;;;;17.05;5.95;;;;;;;;;;4990090;28;20399;-53
2023/02/26 05:04:19;;;;;;;12.77;5.00;;;;;;;;;;4983622;28;20026;-61
2023/02/26 05:06:48;;;;;;;13.30;5.13;;;;;;;;;;4984281;28;20042;-53
2023/02/26 05:09:20;;;;;;;8.27;4.75;;;;;;;;;;4982799;28;20044;-56
2023/02/26 05:11:49;;;;;;;8.13;4.60;;;;;;;;;;4982832;28;20061;-55
2023/02/26 05:14:15;;;;;;;14.55;5.30;;;;;;;;;;4989557;28;20112;-50
2023/02/26 05:16:40;;;;;;;9.55;4.90;;;;;;;;;;4967282;28;20076;-54
2023/02/26 05:19:06;;;;;;;13.45;5.38;;;;;;;;;;4981850;28;20140;-55
2023/02/26 05:21:33;;;;;;;14.10;4.68;;;;;;;;;;4988220;28;20034;-55
2023/02/26 05:23:59;;;;;;;9.52;4.53;;;;;;;;;;4984257;28;20042;-56
2023/02/26 05:26:24;;;;;;;7.60;4.20;;;;;;;;;;4984473;28;20606;-50
2023/02/26 05:28:50;;;;;;;6.82;3.88;;;;;;;;;;4966433;28;20030;-56
2023/02/26 05:31:15;;;;;;;9.07;4.22;;;;;;;;;;4985015;28;20364;-56
2023/02/26 05:33:41;;;;;;;10.02;3.92;;;;;;;;;;4984179;28;20494;-53
2023/02/26 05:36:07;;;;;;;10.77;5.13;;;;;;;;;;4985188;28;20030;-53
2023/02/26 05:38:32;;;;;;;10.43;4.32;;;;;;;;;;4983795;28;20395;-52
2023/02/26 05:40:58;;;;;;;14.45;3.92;;;;;;;;;;4983299;28;20062;-53
2023/02/26 05:43:24;;;;;;;10.52;4.63;;;;;;;;;;4982948;28;20030;-54
2023/02/26 05:45:50;;;;;;;6.10;3.80;;;;;;;;;;4981692;28;20066;-56
2023/02/26 05:48:15;;;;;;;8.52;3.80;;;;;;;;;;4981375;28;20068;-52
2023/02/26 05:50:40;;;;;;;13.38;5.20;;;;;;;;;;4998267;28;20446;-56
2023/02/26 05:53:06;;;;;;;9.60;5.03;;;;;;;;;;4982024;28;20045;-52
2023/02/26 05:55:31;;;;;;;13.32;5.15;;;;;;;;;;4985668;28;20037;-53
2023/02/26 05:57:56;;;;;;;11.43;5.20;;;;;;;;;;4980571;28;20048;-52
2023/02/26 06:00:22;;;;;;;9.50;5.45;;;;;;;;;;4982781;28;20065;-55
2023/02/26 06:02:47;;;;;;;14.50;5.20;;;;;;;;;;4979784;28;20121;-52
2023/02/26 06:05:13;;;;;;;9.40;4.82;;;;;;;;;;4981885;28;20496;-58
2023/02/26 06:07:38;;;;;;;17.15;7.28;;;;;;;;;;4982026;28;20052;-56
2023/02/26 06:10:04;;;;;;;12.20;7.15;;;;;;;;;;4978976;28;20023;-54
2023/02/26 06:12:29;;;;;;;17.45;7.38;;;;;;;;;;4978304;28;20042;-54
2023/02/26 06:14:54;;;;;;;14.60;6.68;;;;;;;;;;4982724;28;20030;-59
2023/02/26 06:17:19;;;;;;;9.60;6.07;;;;;;;;;;4983224;28;20030;-50
2023/02/26 06:19:45;;;;;;;10.55;5.75;;;;;;;;;;4982365;28;20057;-56
2023/02/26 06:22:10;;;;;;;9.05;4.82;;;;;;;;;;4983613;28;20031;-54
2023/02/26 06:24:35;;;;;;;12.95;5.53;;;;;;;;;;4987213;28;20618;-51
2023/02/26 06:27:01;;;;;;;12.18;5.22;;;;;;;;;;4985026;28;20740;-56
2023/02/26 06:29:26;;;;;;;12.63;5.75;;;;;;;;;;4986038;28;20097;-52
2023/02/26 06:31:51;;;;;;;12.23;4.82;;;;;;;;;;4984696;28;20026;-54
2023/02/26 06:34:17;;;;;;;12.13;5.45;;;;;;;;;;4982389;28;20364;-56
2023/02/26 06:36:42;;;;;;;17.67;6.00;;;;;;;;;;4982550;28;20566;-55
2023/02/26 06:39:08;;;;;;;15.38;6.93;;;;;;;;;;4983944;28;20042;-51
2023/02/26 06:41:33;;;;;;;19.05;7.15;;;;;;;;;;4982612;28;20054;-59
2023/02/26 06:43:58;;;;;;;17.67;8.25;;;;;;;;;;4982507;28;20475;-55
2023/02/26 06:46:24;;;;;;;15.68;8.23;;;;;;;;;;4979634;28;20486;-54
2023/02/26 06:48:49;;;;;;;16.48;8.40;;;;;;;;;;4981406;28;20451;-55
2023/02/26 06:51:14;;;;;;;23.50;11.00;;;;;;;;;;4988214;28;20121;-52
2023/02/26 06:53:39;;;;;;;22.80;10.50;;;;;;;;;;4982879;28;20580;-55
2023/02/26 06:56:05;;;;;;;22.70;9.30;;;;;;;;;;4982979;28;20156;-55
2023/02/26 06:58:30;;;;;;;19.95;8.95;;;;;;;;;;4979923;28;20096;-52
2023/02/26 07:00:55;;;;;;;23.85;8.52;;;;;;;;;;4987139;28;20372;-60
2023/02/26 07:03:21;;;;;;;24.45;9.45;;;;;;;;;;4986362;28;20120;-55
2023/02/26 07:05:46;;;;;;;79.95;24.15;;;;;;;;;;4987072;28;20030;-50
2023/02/26 07:08:12;;;;;;;56.08;18.60;;;;;;;;;;4987397;28;20488;-54
2023/02/26 07:10:37;;;;;;;30.20;9.95;;;;;;;;;;4985631;28;20081;-53
2023/02/26 07:13:03;;;;;;;37.58;13.65;;;;;;;;;;5000505;28;20123;-56
2023/02/26 07:15:28;;;;;;;38.10;13.82;;;;;;;;;;4985896;28;20057;-54
2023/02/26 07:17:53;;;;;;;39.75;14.82;;;;;;;;;;4984426;28;20104;-59
2023/02/26 07:20:19;;;;;;;57.25;20.38;;;;;;;;;;4985537;28;20373;-56
2023/02/26 07:22:44;;;;;;;191.10;62.03;;;;;;;;;;4986962;28;20447;-58
2023/02/26 07:25:10;;;;;;;140.77;45.40;;;;;;;;;;4985789;28;20113;-56
2023/02/26 07:27:36;;;;;;;157.80;46.50;;;;;;;;;;4987181;28;20053;-59
2023/02/26 07:30:01;;;;;;;139.15;42.28;;;;;;;;;;4985978;28;20037;-55
2023/02/26 07:32:27;;;;;;;97.45;32.40;;;;;;;;;;4986085;28;20042;-58
2023/02/26 07:34:52;;;;;;;85.45;30.70;;;;;;;;;;4986474;28;20048;-53
2023/02/26 07:37:17;;;;;;;66.88;22.80;;;;;;;;;;4988903;28;20045;-52
2023/02/26 07:39:43;;;;;;;26.70;13.35;;;;;;;;;;4983705;28;20434;-52
2023/02/26 07:42:08;;;;;;;35.10;12.75;;;;;;;;;;4986491;28;20038;-54
2023/02/26 07:44:33;;;;;;;41.70;16.25;;;;;;;;;;4988246;28;20610;-54
2023/02/26 07:46:59;;;;;;;28.60;13.80;;;;;;;;;;4979273;28;20530;-52
2023/02/26 07:49:24;;;;;;;27.42;13.23;;;;;;;;;;4984873;28;20088;-54
2023/02/26 07:51:49;;;;;;;23.60;9.95;;;;;;;;;;4985853;28;20041;-53
2023/02/26 07:54:15;;;;;;;23.55;9.50;;;;;;;;;;4985959;28;20038;-53
2023/02/26 07:56:41;;;;;;;25.75;9.55;;;;;;;;;;4984435;28;20407;-47
2023/02/26 07:59:07;;;;;;;22.37;9.40;;;;;;;;;;4983066;28;20038;-56
2023/02/26 08:01:33;;;;;;;17.30;9.68;;;;;;;;;;4986800;28;20030;-58
2023/02/26 08:03:58;;;;;;;25.25;9.75;;;;;;;;;;4983720;28;20230;-53
2023/02/26 08:06:23;;;;;;;24.02;9.90;;;;;;;;;;4988476;28;20030;-51
2023/02/26 08:08:48;;;;;;;20.88;11.02;;;;;;;;;;4988566;28;20376;-54
2023/02/26 08:11:14;;;;;;;22.45;10.80;;;;;;;;;;4985387;28;20474;-52
2023/02/26 08:13:39;;;;;;;19.17;10.18;;;;;;;;;;4984221;28;20026;-57
2023/02/26 08:16:04;;;;;;;24.38;10.95;;;;;;;;;;4985168;28;20121;-52
2023/02/26 08:18:30;;;;;;;40.45;13.40;;;;;;;;;;4986063;28;20038;-53
2023/02/26 08:20:55;;;;;;;40.80;16.08;;;;;;;;;;4984873;28;20117;-53
2023/02/26 08:23:20;;;;;;;37.47;13.82;;;;;;;;;;4985199;28;20030;-48
2023/02/26 08:25:46;;;;;;;45.25;16.05;;;;;;;;;;4983263;28;20113;-56
2023/02/26 08:28:11;;;;;;;32.28;11.50;;;;;;;;;;4985435;28;20095;-58
2023/02/26 08:30:36;;;;;;;29.13;12.45;;;;;;;;;;4984521;28;20157;-55
2023/02/26 08:33:02;;;;;;;11.75;5.38;;;;;;;;;;4987109;28;20038;-51
2023/02/26 08:35:27;;;;;;;12.45;6.40;;;;;;;;;;4986399;28;20092;-55
2023/02/26 08:37:53;;;;;;;23.13;5.63;;;;;;;;;;4988067;28;20045;-50
2023/02/26 08:40:18;;;;;;;15.40;5.25;;;;;;;;;;4962752;28;20030;-57
2023/02/26 08:42:44;;;;;;;16.02;5.85;;;;;;;;;;4985067;28;20084;-54
2023/02/26 08:45:09;;;;;;;13.88;5.30;;;;;;;;;;4984757;28;20151;-55
2023/02/26 08:47:34;;;;;;;8.73;4.93;;;;;;;;;;4984923;28;20038;-55
2023/02/26 08:50:00;;;;;;;12.45;4.70;;;;;;;;;;4983866;28;20027;-58
2023/02/26 08:52:25;;;;;;;10.27;4.35;;;;;;;;;;4983266;28;20100;-50
2023/02/26 08:54:51;;;;;;;8.93;4.50;;;;;;;;;;4988038;28;20027;-50
2023/02/26 08:57:16;;;;;;;13.95;4.53;;;;;;;;;;4985657;28;20023;-58
2023/02/26 08:59:41;;;;;;;13.93;4.60;;;;;;;;;;4982833;28;20372;-57
2023/02/26 09:02:09;;;;;;;15.88;4.97;;;;;;;;;;4982038;28;20042;-58
2023/02/26 09:04:34;;;;;;;21.40;8.20;;;;;;;;;;4983965;28;20038;-56
2023/02/26 09:06:59;;;;;;;7.68;3.63;;;;;;;;;;4983718;28;20041;-52
2023/02/26 09:09:24;;;;;;;8.60;3.60;;;;;;;;;;4984305;28;20687;-60
2023/02/26 09:11:50;;;;;;;10.00;3.67;;;;;;;;;;4985698;28;20536;-49
2023/02/26 09:14:15;;;;;;;16.00;5.00;;;;;;;;;;4982930;28;20050;-50
2023/02/26 09:16:41;;;;;;;10.02;4.57;;;;;;;;;;4982063;28;20395;-54
2023/02/26 09:19:06;;;;;;;7.72;3.30;;;;;;;;;;4983873;28;20049;-54
2023/02/26 09:21:32;;;;;;;7.38;3.63;;;;;;;;;;4976157;28;20097;-52
2023/02/26 09:23:57;;;;;;;7.65;3.67;;;;;;;;;;4988118;28;20026;-52
2023/02/26 09:26:22;;;;;;;7.65;3.33;;;;;;;;;;4983825;28;20590;-57
2023/02/26 09:28:48;;;;;;;6.93;3.30;;;;;;;;;;4982859;28;20041;-59
2023/02/26 09:31:13;;;;;;;11.50;3.92;;;;;;;;;;4981857;28;20084;-50
2023/02/26 09:33:38;;;;;;;9.80;4.35;;;;;;;;;;4984348;28;20463;-52
2023/02/26 09:36:04;;;;;;;9.52;3.85;;;;;;;;;;4986452;28;20027;-51
2023/02/26 09:38:29;;;;;;;6.72;3.20;;;;;;;;;;4987696;28;20042;-52
2023/02/26 09:41:00;;;;;;;11.35;3.38;;;;;;;;;;4980140;28;20022;-57
2023/02/26 09:43:28;;;;;;;9.73;3.42;;;;;;;;;;4981524;28;20045;-54
2023/02/26 09:45:55;;;;;;;8.77;4.00;;;;;;;;;;4982028;28;20057;-57
2023/02/26 09:48:21;;;;;;;6.35;3.30;;;;;;;;;;4997797;28;20100;-53
2023/02/26 09:50:49;;;;;;;10.23;4.07;;;;;;;;;;4982579;28;20030;-50
2023/02/26 09:53:39;;;;;;;7.32;4.10;;;;;;;;;;4980987;28;20030;-54
2023/02/26 09:56:06;;;;;;;7.32;3.42;;;;;;;;;;4981721;28;20035;-52
2023/02/26 09:58:34;;;;;;;8.32;3.83;;;;;;;;;;4982109;28;20045;-52
2023/02/26 10:00:59;;;;;;;;;;;;;;;;;;4982050;28;20050;-54
2023/02/26 10:03:43;;;;;;;13.30;3.60;;;;;;;;;;4983912;28;19909;-54
2023/02/26 10:06:25;;;;;;;7.32;3.67;;;;;;;;;;4981581;28;20284;-52
2023/02/26 10:09:11;;;;;;;7.53;3.90;;;;;;;;;;4984477;28;20044;-51
2023/02/26 10:11:36;;;;;;;8.77;3.30;;;;;;;;;;4983031;28;20129;-52
2023/02/26 10:14:05;;;;;;;8.43;4.50;;;;;;;;;;4982032;28;20180;-52
2023/02/26 10:16:33;;;;;;;6.82;3.17;;;;;;;;;;4976685;28;20044;-50
2023/02/26 10:19:16;;;;;;;8.32;3.45;;;;;;;;;;4979825;28;20042;-55
2023/02/26 10:22:07;;;;;;;6.05;3.50;;;;;;;;;;4980648;28;20031;-52
2023/02/26 10:24:59;;;;;;;8.55;3.40;;;;;;;;;;4972352;28;20104;-56
2023/02/26 10:27:34;;;;;;;7.63;3.75;;;;;;;;;;4979394;28;20093;-48
2023/02/26 10:30:02;;;;;;;7.10;3.50;;;;;;;;;;4979287;28;20053;-54
2023/02/26 10:32:39;;;;;;;7.70;3.38;;;;;;;;;;4980315;28;20113;-59
2023/02/26 10:35:08;;;;;;;7.88;3.50;;;;;;;;;;4978252;28;20045;-58
2023/02/26 10:37:39;;;;;;;7.32;4.38;;;;;;;;;;4978767;28;20030;-55
2023/02/26 10:40:08;;;;;;;6.03;3.50;;;;;;;;;;4983984;28;20034;-53
2023/02/26 10:42:47;;;;;;;9.18;3.80;;;;;;;;;;4985878;28;20057;-54
2023/02/26 10:45:21;;;;;;;7.90;2.85;;;;;;;;;;4979674;28;20038;-61
2023/02/26 10:47:47;;;;;;;5.43;2.92;;;;;;;;;;4978825;28;20038;-56
2023/02/26 10:50:14;;;;;;;5.85;2.88;;;;;;;;;;4973101;28;20049;-55
2023/02/26 10:52:42;;;;;;;6.40;3.65;;;;;;;;;;4970778;28;20149;-50
2023/02/26 10:55:10;;;;;;;5.43;3.45;;;;;;;;;;4972390;28;20065;-55
2023/02/26 10:57:39;;;;;;;8.65;3.20;;;;;;;;;;4977699;28;20045;-51
2023/02/26 11:00:05;;;;;;;5.10;3.20;;;;;;;;;;4979351;28;20364;-60
2023/02/26 11:02:42;;;;;;;5.37;2.97;;;;;;;;;;4998233;28;20076;-55
2023/02/26 11:05:36;;;;;;;7.40;3.58;;;;;;;;;;4977861;28;20030;-49
2023/02/26 11:08:04;;;;;;;7.50;4.03;;;;;;;;;;4971617;28;20054;-58
2023/02/26 11:10:48;;;;;;;8.82;4.68;;;;;;;;;;4978881;28;20116;-49
2023/02/26 11:13:14;;;;;;;8.38;3.83;;;;;;;;;;4975026;28;20046;-58
2023/02/26 11:15:40;;;;;;;6.97;3.80;;;;;;;;;;4984936;28;20041;-58
2023/02/26 11:18:09;;;;;;;5.95;3.63;;;;;;;;;;4974333;28;20050;-54
2023/02/26 11:20:38;;;;;;;7.50;3.25;;;;;;;;;;4973178;28;20494;-51
2023/02/26 11:23:06;;;;;;;6.05;3.40;;;;;;;;;;4980544;28;20124;-50
2023/02/26 11:25:33;;;;;;;7.35;3.30;;;;;;;;;;4977263;28;20563;-56
2023/02/26 11:28:00;;;;;;;7.03;3.70;;;;;;;;;;4980489;28;20038;-52
2023/02/26 11:30:26;;;;;;;7.95;3.30;;;;;;;;;;4975115;28;20042;-59
2023/02/26 11:32:55;;;;;;;6.05;3.40;;;;;;;;;;4979543;28;20033;-55
2023/02/26 11:35:22;;;;;;;6.00;3.05;;;;;;;;;;4983161;28;20093;-54
2023/02/26 11:37:49;;;;;;;8.77;3.95;;;;;;;;;;4978317;28;20022;-51
2023/02/26 11:40:21;;;;;;;6.43;3.30;;;;;;;;;;4977145;28;20038;-50
2023/02/26 11:42:54;;;;;;;6.00;3.17;;;;;;;;;;4974423;28;20023;-55
2023/02/26 11:45:20;;;;;;;5.25;3.33;;;;;;;;;;4974025;28;20110;-55
2023/02/26 11:47:46;;;;;;;5.18;3.25;;;;;;;;;;4984340;28;20458;-49
2023/02/26 11:50:14;;;;;;;7.55;3.35;;;;;;;;;;4977153;28;20030;-51
2023/02/26 11:52:40;;;;;;;5.72;3.15;;;;;;;;;;4973317;28;20840;-55
2023/02/26 11:55:26;;;;;;;7.63;3.97;;;;;;;;;;4985646;28;20042;-54
2023/02/26 11:57:55;;;;;;;6.10;3.35;;;;;;;;;;4991407;28;20124;-50
2023/02/26 12:00:28;;;;;;;5.80;3.67;;;;;;;;;;4982581;28;20034;-50
2023/02/26 12:02:55;;;;;;;4.85;3.20;;;;;;;;;;4977658;28;20027;-54
2023/02/26 12:05:21;;;;;;;7.82;4.00;;;;;;;;;;4977516;28;20384;-51
2023/02/26 12:07:47;;;;;;;7.75;3.28;;;;;;;;;;4979878;28;20045;-52
2023/02/26 12:10:25;;;;;;;7.10;3.70;;;;;;;;;;4979508;28;20034;-53
2023/02/26 12:12:57;;;;;;;6.88;3.65;;;;;;;;;;4978471;28;20106;-51
2023/02/26 12:15:50;;;;;;;7.82;4.13;;;;;;;;;;4984579;28;20125;-52
2023/02/26 12:18:27;;;;;;;6.82;2.95;;;;;;;;;;4975449;28;21444;-56
2023/02/26 12:20:55;;;;;;;6.22;3.25;;;;;;;;;;4979046;28;20034;-55
2023/02/26 12:23:20;;;;;;;4.82;3.60;;;;;;;;;;4982570;28;20094;-50
2023/02/26 12:25:53;;;;;;;7.22;3.35;;;;;;;;;;4984491;28;20073;-50
2023/02/26 12:28:25;;;;;;;6.82;3.28;;;;;;;;;;4981771;28;20591;-51
2023/02/26 12:30:53;;;;;;;4.28;3.03;;;;;;;;;;4967656;28;20046;-58
2023/02/26 12:33:18;;;;;;;9.18;3.58;;;;;;;;;;4976848;28;20088;-54
2023/02/26 12:35:51;;;;;;;7.43;3.92;;;;;;;;;;4981633;28;20458;-56
2023/02/26 12:38:20;;;;;;;4.53;2.97;;;;;;;;;;4975767;28;20096;-50
2023/02/26 12:40:57;;;;;;;4.65;2.75;;;;;;;;;;4986048;28;20445;-52
2023/02/26 12:43:25;;;;;;;4.60;2.85;;;;;;;;;;4978713;28;20038;-54
2023/02/26 12:45:52;;;;;;;5.93;2.60;;;;;;;;;;4976961;28;20137;-55
2023/02/26 12:48:36;;;;;;;3.97;2.72;;;;;;;;;;4982354;28;20042;-52
2023/02/26 12:51:14;;;;;;;5.47;2.92;;;;;;;;;;4977826;28;20088;-57
2023/02/26 12:54:02;;;;;;;5.20;3.25;;;;;;;;;;4975819;28;20471;-54
2023/02/26 12:56:39;;;;;;;5.40;3.00;;;;;;;;;;4982231;28;20387;-52
2023/02/26 12:59:05;;;;;;;;;;;;;;;;;;4969039;28;20049;-55
2023/02/26 13:01:33;;;;;;;4.63;2.60;;;;;;;;;;4975012;28;19917;-55
2023/02/26 13:03:58;;;;;;;6.60;3.50;;;;;;;;;;4981938;28;20287;-55
2023/02/26 13:06:44;;;;;;;7.38;2.40;;;;;;;;;;4974983;28;20030;-54
2023/02/26 13:09:10;;;;;;;6.30;3.88;;;;;;;;;;4977334;28;20465;-53
2023/02/26 13:11:38;;;;;;;4.20;2.50;;;;;;;;;;4982894;28;20038;-57
2023/02/26 13:14:15;;;;;;;4.35;2.72;;;;;;;;;;4971842;28;20046;-56
2023/02/26 13:16:40;;;;;;;;;;;;;;;;;;4982543;28;20436;-51
2023/02/26 13:19:22;;;;;;;5.63;2.30;;;;;;;;;;4976536;28;20060;-49
2023/02/26 13:21:54;;;;;;;3.85;2.00;;;;;;;;;;4973636;28;20375;-54
2023/02/26 13:24:20;;;;;;;2.75;1.92;;;;;;;;;;4978255;28;20383;-56
2023/02/26 13:26:46;;;;;;;4.05;2.40;;;;;;;;;;4975996;28;20726;-53
2023/02/26 13:29:17;;;;;;;3.83;2.40;;;;;;;;;;4982997;28;20049;-54
2023/02/26 13:31:47;;;;;;;4.00;2.20;;;;;;;;;;4974393;28;20032;-52
2023/02/26 13:34:14;;;;;;;5.07;3.20;;;;;;;;;;4972505;28;20065;-51
2023/02/26 13:36:40;;;;;;;4.65;2.85;;;;;;;;;;4979695;28;20089;-56
2023/02/26 13:39:26;;;;;;;6.43;3.33;;;;;;;;;;4975860;28;20042;-49
2023/02/26 13:42:09;;;;;;;4.03;2.40;;;;;;;;;;4973288;28;20475;-56
2023/02/26 13:44:42;;;;;;;5.13;3.05;;;;;;;;;;4995574;28;20150;-54
2023/02/26 13:47:26;;;;;;;4.38;2.35;;;;;;;;;;4975257;28;20034;-49
2023/02/26 13:50:09;;;;;;;6.78;2.75;;;;;;;;;;4979035;28;20456;-50
2023/02/26 13:52:35;;;;;;;5.15;2.40;;;;;;;;;;4981585;28;20117;-51
2023/02/26 13:55:02;;;;;;;4.18;2.63;;;;;;;;;;4977301;28;20097;-50
2023/02/26 13:57:33;;;;;;;3.35;1.95;;;;;;;;;;4981411;28;20049;-56
2023/02/26 14:00:11;;;;;;;7.95;3.50;;;;;;;;;;4972833;28;20034;-53
2023/02/26 14:02:43;;;;;;;5.63;2.58;;;;;;;;;;4972592;28;20026;-53
2023/02/26 14:05:26;;;;;;;3.35;2.10;;;;;;;;;;4983390;28;20037;-53
2023/02/26 14:08:06;;;;;;;3.28;2.03;;;;;;;;;;4976248;28;20029;-54
2023/02/26 14:10:35;;;;;;;5.55;3.13;;;;;;;;;;4973754;28;20034;-50
2023/02/26 14:13:13;;;;;;;7.18;2.50;;;;;;;;;;4983408;28;20034;-55
2023/02/26 14:15:42;;;;;;;7.72;3.40;;;;;;;;;;4975505;28;20026;-55
2023/02/26 14:18:25;;;;;;;5.95;3.05;;;;;;;;;;4977496;28;20435;-62
2023/02/26 14:20:50;;;;;;;6.90;3.33;;;;;;;;;;4981608;28;20069;-54
2023/02/26 14:23:31;;;;;;;6.40;3.17;;;;;;;;;;4979042;28;20137;-57
2023/02/26 14:26:02;;;;;;;4.32;2.42;;;;;;;;;;4982118;28;20040;-54
2023/02/26 14:28:27;;;;;;;9.43;4.15;;;;;;;;;;4974908;28;20031;-58
2023/02/26 14:31:05;;;;;;;4.35;2.30;;;;;;;;;;4976951;28;20034;-53
2023/02/26 14:33:36;;;;;;;3.80;2.10;;;;;;;;;;4996633;28;20045;-52
2023/02/26 14:36:03;;;;;;;3.00;2.10;;;;;;;;;;4978747;28;20031;-55
2023/02/26 14:38:34;;;;;;;3.72;2.35;;;;;;;;;;4976919;28;20587;-51
2023/02/26 14:41:19;;;;;;;4.70;2.75;;;;;;;;;;4981788;28;20035;-51
2023/02/26 14:43:51;;;;;;;3.58;2.30;;;;;;;;;;4973520;28;21015;-52
2023/02/26 14:46:17;;;;;;;3.03;2.20;;;;;;;;;;4979862;28;20076;-50
2023/02/26 14:48:42;;;;;;;5.35;2.42;;;;;;;;;;4973255;28;20034;-49
2023/02/26 14:51:26;;;;;;;4.75;3.08;;;;;;;;;;4973754;28;20038;-52